• Join FlightAware (Why Join?)
  • Login
  • US Flag 
03:40AM EDT


 

Airport Tracker/Info


-or-


 

Live Flight TrackerFlight Track Log ✈ N569LM ✈ 29-Sep-2013 ✈ KSAT - MMAN / NTR

Flight Track Log - Related Links

Times and Time Zones

All times are in EDT time to prevent confusion due to time zone crossing. See the N569LM flight status page for this flight to view local times or setup timezone preferences in your user account.

Time Position Orientation Groundspeed Altitude Reporting Facility
EDT Latitude Longitude Course Direction KTS MPH feet Rate Location/Type
06:02PM 29.5439 -98.4878 299° West 151 174 1,400  Level Houston Center
06:03PM 29.5700 -98.5414 299° West 177 204 4,100 2,220 Climbing Houston Center
06:03PM 29.5664 -98.5522 249° West 200 230 4,300 1,560 Climbing Houston Center
06:04PM 29.5053 -98.5933 210° Southwest 279 321 5,900 1,860 Climbing Houston Center
06:05PM 29.4378 -98.5978 183° South 270 311 8,000 1,920 Climbing Houston Center
06:06PM 29.3567 -98.6208 194° South 281 323 9,700 1,620 Climbing Houston Center
06:07PM 29.2753 -98.6308 186° South 293 337 11,400 1,680 Climbing Houston Center
06:08PM 29.1908 -98.6533 193° South 294 338 13,200 1,680 Climbing Houston Center
06:09PM 29.1161 -98.6969 207° Southwest 301 346 14,900 1,500 Climbing Houston Center
06:10PM 29.0319 -98.7372 203° Southwest 305 351 16,400 1,440 Climbing Houston Center
06:11PM 28.9547 -98.7772 204° Southwest 304 350 17,900 1,260 Climbing Houston Center
06:12PM 28.8778 -98.8222 207° Southwest 310 357 19,100 1,020 Climbing Houston Center
06:13PM 28.7894 -98.8622 202° Southwest 313 360 20,100 960 Climbing Houston Center
06:14PM 28.7075 -98.9061 205° Southwest 323 372 21,100 840 Climbing Houston Center
06:15PM 28.6308 -98.9489 206° Southwest 336 387 21,900 960 Climbing Houston Center
06:16PM 28.5303 -99.0042 206° Southwest 335 386 23,100 960 Climbing Houston Center
06:17PM 28.4444 -99.0475 204° Southwest 337 388 23,900 420 Climbing Houston Center
06:18PM 28.3561 -99.0936 205° Southwest 347 399 24,000  Climbing Houston Center
06:19PM 28.2625 -99.1419 204° Southwest 364 419 24,000  Level Houston Center
06:20PM 28.1672 -99.1917 205° Southwest 376 433 24,000  Level Houston Center
06:21PM 28.0714 -99.2411 204° Southwest 379 436 24,000  Level Houston Center
06:22PM 27.9564 -99.3006 205° Southwest 379 436 24,000  Level Houston Center
06:23PM 27.8594 -99.3500 204° Southwest 383 441 24,000  Level Houston Center
06:24PM 27.7628 -99.4003 205° Southwest 385 443 24,000  Level Houston Center
06:25PM 27.6667 -99.4492 204° Southwest 382 440 24,000  Level Houston Center
06:26PM 27.5706 -99.4992 205° Southwest 383 441 24,000  Level Houston Center
06:27PM 27.4553 -99.5572 204° Southwest 381 438 24,000  Level Houston Center
06:29PM 27.3717 -99.5811 196° South  Level FlightAware Approximate
06:36PM 26.8070 -99.7644 197° South  Level FlightAware Approximate
06:37PM 26.7262 -99.7903 196° South  Level FlightAware Approximate
06:38PM 26.6455 -99.8162 196° South  Level FlightAware Approximate
06:39PM 26.5648 -99.8421 196° South  Level FlightAware Approximate
06:40PM 26.4840 -99.8679 196° South  Level FlightAware Approximate
06:41PM 26.4033 -99.8936 196° South  Level FlightAware Approximate
06:42PM 26.3222 -99.9183 195° South  Level FlightAware Approximate
06:43PM 26.2411 -99.9427 195° South  Level FlightAware Approximate
06:44PM 26.1605 -99.9688 197° South  Level FlightAware Approximate
06:45PM 26.0800 -99.9956 197° South  Level FlightAware Approximate
06:46PM 25.9994 -100.0218 195° South  Level FlightAware Approximate
06:47PM 25.9184 -100.0462 195° South  Level FlightAware Approximate
06:48PM 25.8380 -100.0727 204° Southwest  Level FlightAware Approximate
06:49PM 25.7721 -100.1072 310° West  Level FlightAware Approximate
06:50PM 25.8246 -100.1799 304° West  Level FlightAware Approximate
06:51PM 25.8656 -100.2372 304° West  Level Estimated
06:52PM 25.8656 -100.2372 304° West  Level Estimated
06:53PM 25.8656 -100.2372 304° West  Level Estimated
06:54PM 25.8656 -100.2372 304° West  Level Estimated
06:55PM 25.8656 -100.2372 304° West  Level Estimated
06:56PM 25.8656 -100.2372 304° West  Level Estimated
06:57PM 25.8656 -100.2372 304° West  Level Estimated
06:58PM 25.8656 -100.2372 304° West  Level Estimated
06:59PM 25.8656 -100.2372 304° West  Level Estimated
07:00PM 25.8656 -100.2372 304° West  Level Estimated
07:01PM 25.8656 -100.2372 304° West  Level Estimated
07:02PM 25.8656 -100.2372 304° West  Level Estimated
07:03PM 25.8656 -100.2372 304° West  Level Estimated
07:04PM 25.8656 -100.2372 304° West  Level Estimated
07:05PM 25.8656 -100.2372 304° West  Level Estimated
07:06PM 25.8656 -100.2372 304° West  Level Estimated
07:07PM 25.8656 -100.2372 304° West  Level Estimated